x

South Santa Rosa Is. Ca (46069) Wave Buoy

8:50am - Tue 3rd May 2016 All times are PDT. -7 hours from GMT.

  • Sig Wave height 6.6ft
  • Swell Direction
  • Peak Period 15s
  • Average Period 8s
  • Wind
    13mph, 18mph gusts
  • Sea Temp 56°f
  • Air Temp 54°f
  • Sea Pressure 1015.7mb
  • South Santa Rosa Is. Ca
  • South Santa Rosa Is. Ca

More Historic Weather Station data

Upgrade to MSW Pro to gain access to the past 30 days of data for over 8000 Wavebouys and Weather Stations around the globe.

Join Pro

Comparision Forecast

View Surf forecast
   
Tue 05/03 8:50am 6.5ft 15s 8s 13 18 mph 1015.7mb 56f 54f
7:50am 5.5ft 14s 8s 16 18 mph 1015.4mb 56f 54f
5:50am 6ft 14s 8s 11 13 mph 1014.4mb 56f 54f
4:50am 5.5ft 15s 8s 11 13 mph 1014.4mb 56f 55f
3:50am 6ft 15s 8s 11 13 mph 1014.2mb 56f 55f
2:50am 5.5ft 13s 7s 13 16 mph 1014.5mb 56f 55f
1:50am 5ft 14s 6s 16 18 mph 1015.1mb 57f 55f
12:50am 5.5ft 13s 7s 16 20 mph 1015.6mb 57f 55f
Mon 05/02 11:50pm 5.5ft 14s 7s 18 20 mph 1015.3mb 57f 56f
10:50pm 5ft 15s 7s 16 18 mph 1015.8mb 57f 56f
9:50pm 5ft 14s 8s 16 18 mph 1015.9mb 57f 56f
8:50pm 5.5ft 13s 8s 13 18 mph 1015.7mb 57f 56f
7:50pm 5ft 14s 8s 16 18 mph 1015.3mb 58f 57f
6:50pm 5ft 12s 8s 13 16 mph 1015.4mb 58f 58f
5:50pm 5ft 15s 9s 13 16 mph 1015.6mb 58f 58f
4:50pm 5ft 13s 9s 13 16 mph 1016mb 58f 58f
3:50pm 5ft 15s 9s 9 11 mph 1016.5mb 58f 57f
2:50pm 6ft 13s 10s 9 11 mph 1017.1mb 58f 56f
1:50pm 5ft 14s 9s 9 11 mph 1017.6mb 58f 56f
12:50pm 5ft 15s 9s 7
mph
1018.1mb 58f 56f
11:50am 5ft 14s 9s 4 7 mph 1018.4mb 58f 56f
10:50am 6ft 15s 10s 2 7 mph 1018.5mb 58f 56f
9:50am 6ft 15s 10s 2
mph
1018.2mb 57f 56f
8:50am 5ft 14s 9s 4 7 mph 1017.9mb 57f 55f
7:50am 6ft 15s 10s 2 4 mph 1017.4mb 56f 55f
6:50am 5ft 16s 9s  -  4 mph 1016.8mb 56f 55f
5:50am 5ft 15s 9s 2 4 mph 1016.2mb 56f 55f
4:50am 6ft 14s 10s 2 4 mph 1016mb 56f 55f
3:50am 5.5ft 16s 9s 4
mph
1016.1mb 56f 55f
2:50am 6ft 15s 9s 2 4 mph 1016.1mb 56f 55f
1:50am 5ft 15s 9s 2 4 mph 1016.5mb 56f 56f
12:50am 6ft 16s 9s 2 4 mph 1016.3mb 56f 56f
Sun 05/01 11:50pm 6ft 11s 8s 2 4 mph 1016mb 56f 56f
10:50pm 6ft 10s 9s 4 7 mph 1016mb 56f 56f
9:50pm 5.5ft 10s 8s 4 7 mph 1015.6mb 56f 56f
8:50pm 6.5ft 16s 9s 4 7 mph 1015mb 56f 56f
7:50pm 6ft 16s 9s 2 4 mph 1014mb 57f 56f
6:50pm 6ft 16s 9s 7 9 mph 1013.5mb 57f 56f
5:50pm 6ft 11s 9s 7
mph
1013.4mb 57f 57f
4:50pm 6ft 10s 8s 4 7 mph 1013.4mb 57f 57f
3:50pm 6ft 10s 9s 7 9 mph 1013.3mb 57f 57f
2:50pm 6ft 17s 9s 7 9 mph 1013.8mb 56f 57f
1:50pm 6.5ft 11s 9s 9 11 mph 1013.7mb 56f 56f
12:50pm 7ft 11s 9s 7 9 mph 1013.6mb 56f 57f
11:50am 7.5ft 17s 9s 7 11 mph 1013.5mb 56f 56f
10:50am 7.5ft 17s 9s 7 9 mph 1013.2mb 56f 56f
9:50am 7.5ft 11s 8s 7 9 mph 1012.7mb 56f 56f
8:50am 7ft 11s 8s  -  2 mph 1012.1mb 55f 56f
7:50am 7ft 11s 8s 2 4 mph 1011.6mb 55f 55f
6:50am 7ft 11s 8s 4
mph
1011mb 55f 55f
5:50am 7ft 10s 8s 4 7 mph 1010.1mb 55f 54f
4:50am 7ft 11s 8s 4 7 mph 1009.9mb 55f 54f
3:50am 7ft 11s 8s 7 9 mph 1009.7mb 55f 55f
2:50am 8ft 10s 8s 9 11 mph 1009.5mb 55f 55f
1:50am 7.5ft 11s 7s 9 11 mph 1009.8mb 55f 55f
12:50am 8ft 10s 7s 13 18 mph 1010mb 55f 55f
Sat 04/30 11:50pm 8ft 11s 8s 13 18 mph 1010.2mb 55f 55f
10:50pm 8ft 11s 7s 13 18 mph 1010.5mb 55f 55f
9:50pm 7ft 11s 7s 18 20 mph 1010.3mb 55f 55f
8:50pm 8ft 10s 7s 18 20 mph 1009.7mb 55f 55f
7:50pm 7.5ft 11s 7s 18 22 mph 1009.3mb 55f 55f
6:50pm 8.5ft 11s 7s 20 25 mph 1009.3mb 55f 56f
5:50pm 8ft 10s 7s 20 22 mph 1009.4mb 55f 56f
4:50pm 8ft 10s 7s 22 27 mph 1009.3mb 55f 56f
3:50pm 9ft 11s 7s 22 27 mph 1009.5mb 55f 56f
2:50pm 9ft 10s 7s 22 29 mph 1010.1mb 55f 55f
1:50pm 9ft 11s 8s 22 25 mph 1010.4mb 55f 55f
12:50pm 9ft 10s 7s 20 25 mph 1010.8mb 55f 55f
11:50am 8ft 11s 7s 20 25 mph 1011.6mb 55f 54f
10:50am 8.5ft 10s 7s 20 25 mph 1011.6mb 55f 54f
9:50am 9ft 9s 7s 22 27 mph 1011.5mb 55f 53f
8:50am 9ft 10s 7s 25 29 mph 1011.4mb 55f 53f
7:50am 10ft 9s 7s 29 34 mph 1011.2mb 55f 53f
5:50am 10ft 8s 7s 22 29 mph 1010.8mb 55f 54f
4:50am 10ft 9s 7s 25 31 mph 1011mb 55f 55f
3:50am 10ft 8s 7s 29 36 mph 1011.1mb 55f 55f
2:50am 9ft 7s 7s 25 31 mph 1011.8mb 55f 55f
1:50am 9ft 7s 7s 29 36 mph 1012.6mb 55f 55f
12:50am 9ft 13s 7s 27 34 mph 1013.2mb 55f 55f
Fri 04/29 11:50pm 8ft 12s 6s 29 36 mph 1013.6mb 55f 55f
10:50pm 9ft 14s 7s 31 38 mph 1013.7mb 56f 55f
9:50pm 9ft 13s 6s 31 38 mph 1013.7mb 56f 55f
8:50pm 9ft 14s 7s 29 34 mph 1013.9mb 56f 54f
7:50pm 10ft 14s 7s 31 38 mph 1014mb 56f 55f
6:50pm 10ft 13s 7s 27 36 mph 1014.8mb 56f 55f
5:50pm 10ft 13s 7s 31 36 mph 1014.8mb 56f 55f